sensor_id;sensor_type;location;lat;lon;timestamp;pressure;altitude;pressure_sealevel;temperature;humidity
63691;BME280;49837;57.280;27.070;2022-12-07T00:00:12;99834.69;;;-4.89;95.98
63691;BME280;49837;57.280;27.070;2022-12-07T00:01:13;99837.19;;;-4.87;96.01
63691;BME280;49837;57.280;27.070;2022-12-07T00:02:12;99832.73;;;-4.89;96.02
63691;BME280;49837;57.280;27.070;2022-12-07T00:03:12;99830.75;;;-4.94;96.06
63691;BME280;49837;57.280;27.070;2022-12-07T00:04:14;99831.66;;;-4.9;96.11
63691;BME280;49837;57.280;27.070;2022-12-07T00:05:13;99831.44;;;-4.89;96.09
63691;BME280;49837;57.280;27.070;2022-12-07T00:06:15;99826.8;;;-4.89;96.1
63691;BME280;49837;57.280;27.070;2022-12-07T00:07:14;99823.62;;;-4.89;96.17
63691;BME280;49837;57.280;27.070;2022-12-07T00:08:14;99826.53;;;-4.9;96.19
63691;BME280;49837;57.280;27.070;2022-12-07T00:09:16;99825.72;;;-4.9;96.13
63691;BME280;49837;57.280;27.070;2022-12-07T00:10:15;99826.74;;;-4.91;96.11
63691;BME280;49837;57.280;27.070;2022-12-07T00:11:17;99823.84;;;-4.9;96.18
63691;BME280;49837;57.280;27.070;2022-12-07T00:12:16;99821.62;;;-4.91;96.13
63691;BME280;49837;57.280;27.070;2022-12-07T00:13:16;99820.55;;;-4.94;96.12
63691;BME280;49837;57.280;27.070;2022-12-07T00:14:17;99818.63;;;-4.93;96.16
63691;BME280;49837;57.280;27.070;2022-12-07T00:15:17;99819.94;;;-4.93;96.17
63691;BME280;49837;57.280;27.070;2022-12-07T00:16:18;99820.19;;;-4.9;96.17
63691;BME280;49837;57.280;27.070;2022-12-07T00:17:18;99816.75;;;-4.85;96.15
63691;BME280;49837;57.280;27.070;2022-12-07T00:18:18;99822.25;;;-4.86;95.98
63691;BME280;49837;57.280;27.070;2022-12-07T00:19:19;99815.5;;;-4.89;96.02
63691;BME280;49837;57.280;27.070;2022-12-07T00:20:19;99815.08;;;-4.96;96.02
63691;BME280;49837;57.280;27.070;2022-12-07T00:22:21;99816.64;;;-4.83;95.94
63691;BME280;49837;57.280;27.070;2022-12-07T00:23:21;99810.78;;;-4.86;95.92
63691;BME280;49837;57.280;27.070;2022-12-07T00:24:22;99810.2;;;-4.89;95.88
63691;BME280;49837;57.280;27.070;2022-12-07T00:25:22;99806.98;;;-4.88;95.9
63691;BME280;49837;57.280;27.070;2022-12-07T00:26:28;99808.28;;;-4.88;95.95
63691;BME280;49837;57.280;27.070;2022-12-07T00:27:27;99808.64;;;-4.87;95.98
63691;BME280;49837;57.280;27.070;2022-12-07T00:28:26;99820.89;;;-4.85;95.95
63691;BME280;49837;57.280;27.070;2022-12-07T00:29:26;99811.0;;;-4.83;95.87
63691;BME280;49837;57.280;27.070;2022-12-07T00:30:27;99810.0;;;-4.82;95.72
63691;BME280;49837;57.280;27.070;2022-12-07T00:31:30;99806.87;;;-4.89;95.59
63691;BME280;49837;57.280;27.070;2022-12-07T00:32:28;99807.66;;;-4.9;95.68
63691;BME280;49837;57.280;27.070;2022-12-07T00:33:28;99804.73;;;-4.9;95.74
63691;BME280;49837;57.280;27.070;2022-12-07T00:34:29;99807.47;;;-4.82;95.77
63691;BME280;49837;57.280;27.070;2022-12-07T00:35:29;99805.52;;;-4.85;95.67
63691;BME280;49837;57.280;27.070;2022-12-07T00:36:29;99803.62;;;-4.86;95.67
63691;BME280;49837;57.280;27.070;2022-12-07T00:37:30;99806.52;;;-4.83;95.67
63691;BME280;49837;57.280;27.070;2022-12-07T00:38:32;99803.56;;;-4.82;95.62
63691;BME280;49837;57.280;27.070;2022-12-07T00:39:31;99805.73;;;-4.8;95.67
63691;BME280;49837;57.280;27.070;2022-12-07T00:40:31;99804.11;;;-4.82;95.62
63691;BME280;49837;57.280;27.070;2022-12-07T00:41:32;99804.33;;;-4.84;95.58
63691;BME280;49837;57.280;27.070;2022-12-07T00:42:32;99802.27;;;-4.88;95.53
63691;BME280;49837;57.280;27.070;2022-12-07T00:43:33;99803.91;;;-4.9;95.54
63691;BME280;49837;57.280;27.070;2022-12-07T00:44:34;99803.19;;;-4.9;95.67
63691;BME280;49837;57.280;27.070;2022-12-07T00:45:34;99801.8;;;-4.9;95.68
63691;BME280;49837;57.280;27.070;2022-12-07T00:46:35;99798.57;;;-4.89;95.77
63691;BME280;49837;57.280;27.070;2022-12-07T00:47:35;99805.89;;;-4.92;95.82
63691;BME280;49837;57.280;27.070;2022-12-07T00:48:36;99805.0;;;-4.92;95.92
63691;BME280;49837;57.280;27.070;2022-12-07T00:49:37;99801.09;;;-4.89;96.01
63691;BME280;49837;57.280;27.070;2022-12-07T00:50:37;99803.43;;;-4.87;96.03
63691;BME280;49837;57.280;27.070;2022-12-07T00:51:37;99803.56;;;-4.85;96.04
63691;BME280;49837;57.280;27.070;2022-12-07T00:52:38;99801.16;;;-4.87;96.08
63691;BME280;49837;57.280;27.070;2022-12-07T00:53:39;99801.5;;;-4.86;96.05
63691;BME280;49837;57.280;27.070;2022-12-07T00:54:40;99794.45;;;-4.94;96.09
63691;BME280;49837;57.280;27.070;2022-12-07T00:55:40;99799.36;;;-4.9;96.18
63691;BME280;49837;57.280;27.070;2022-12-07T00:56:40;99804.02;;;-4.89;96.15
63691;BME280;49837;57.280;27.070;2022-12-07T00:57:40;99797.84;;;-4.89;96.12
63691;BME280;49837;57.280;27.070;2022-12-07T00:58:41;99799.8;;;-4.86;96.1
63691;BME280;49837;57.280;27.070;2022-12-07T00:59:41;99794.39;;;-4.9;96.14
63691;BME280;49837;57.280;27.070;2022-12-07T01:00:42;99796.65;;;-4.92;96.1
63691;BME280;49837;57.280;27.070;2022-12-07T01:01:42;99794.75;;;-4.95;96.08
63691;BME280;49837;57.280;27.070;2022-12-07T01:02:42;99795.39;;;-4.99;96.07
63691;BME280;49837;57.280;27.070;2022-12-07T01:03:43;99794.48;;;-4.9;96.1
63691;BME280;49837;57.280;27.070;2022-12-07T01:04:43;99791.09;;;-4.89;95.95
63691;BME280;49837;57.280;27.070;2022-12-07T01:06:48;99789.55;;;-4.89;95.7
63691;BME280;49837;57.280;27.070;2022-12-07T01:07:48;99792.52;;;-4.94;95.64
63691;BME280;49837;57.280;27.070;2022-12-07T01:08:49;99791.68;;;-4.94;95.59
63691;BME280;49837;57.280;27.070;2022-12-07T01:09:49;99792.17;;;-4.94;95.59
63691;BME280;49837;57.280;27.070;2022-12-07T01:10:56;99788.83;;;-4.94;95.53
63691;BME280;49837;57.280;27.070;2022-12-07T01:11:54;99787.91;;;-4.96;95.5
63691;BME280;49837;57.280;27.070;2022-12-07T01:12:54;99790.77;;;-4.92;95.53
63691;BME280;49837;57.280;27.070;2022-12-07T01:13:56;99790.49;;;-4.9;95.5
63691;BME280;49837;57.280;27.070;2022-12-07T01:14:56;99790.88;;;-4.91;95.41
63691;BME280;49837;57.280;27.070;2022-12-07T01:16:01;99790.55;;;-4.91;95.4
63691;BME280;49837;57.280;27.070;2022-12-07T01:16:59;99788.84;;;-4.92;95.42
63691;BME280;49837;57.280;27.070;2022-12-07T01:17:59;99789.43;;;-4.9;95.41
63691;BME280;49837;57.280;27.070;2022-12-07T01:19:00;99785.91;;;-4.92;95.29
63691;BME280;49837;57.280;27.070;2022-12-07T01:20:00;99785.34;;;-4.91;95.32
63691;BME280;49837;57.280;27.070;2022-12-07T01:21:15;99786.42;;;-4.87;95.34
63691;BME280;49837;57.280;27.070;2022-12-07T01:22:03;99789.14;;;-4.89;95.35
63691;BME280;49837;57.280;27.070;2022-12-07T01:23:03;99782.82;;;-4.85;95.4
63691;BME280;49837;57.280;27.070;2022-12-07T01:24:07;99787.19;;;-4.82;95.33
63691;BME280;49837;57.280;27.070;2022-12-07T01:25:05;99786.42;;;-4.81;95.28
63691;BME280;49837;57.280;27.070;2022-12-07T01:26:07;99784.83;;;-4.92;95.32
63691;BME280;49837;57.280;27.070;2022-12-07T01:27:05;99784.73;;;-4.95;95.51
63691;BME280;49837;57.280;27.070;2022-12-07T01:28:06;99780.91;;;-5.02;95.57
63691;BME280;49837;57.280;27.070;2022-12-07T01:29:06;99779.58;;;-5.03;95.61
63691;BME280;49837;57.280;27.070;2022-12-07T01:30:07;99780.42;;;-4.98;95.75
63691;BME280;49837;57.280;27.070;2022-12-07T01:31:12;99780.08;;;-4.97;95.75
63691;BME280;49837;57.280;27.070;2022-12-07T01:32:10;99781.38;;;-4.93;95.71
63691;BME280;49837;57.280;27.070;2022-12-07T01:33:11;99774.57;;;-4.99;95.68
63691;BME280;49837;57.280;27.070;2022-12-07T01:34:11;99779.64;;;-4.94;95.69
63691;BME280;49837;57.280;27.070;2022-12-07T01:35:12;99779.2;;;-4.95;95.61
63691;BME280;49837;57.280;27.070;2022-12-07T01:37:16;99775.81;;;-4.94;95.52
63691;BME280;49837;57.280;27.070;2022-12-07T01:38:16;99773.66;;;-4.93;95.47
63691;BME280;49837;57.280;27.070;2022-12-07T01:39:16;99773.46;;;-4.91;95.45
63691;BME280;49837;57.280;27.070;2022-12-07T01:40:17;99775.22;;;-4.92;95.4
63691;BME280;49837;57.280;27.070;2022-12-07T01:41:17;99780.38;;;-4.92;95.42
63691;BME280;49837;57.280;27.070;2022-12-07T01:42:18;99774.66;;;-4.96;95.34
63691;BME280;49837;57.280;27.070;2022-12-07T01:43:19;99774.23;;;-5.01;95.35
63691;BME280;49837;57.280;27.070;2022-12-07T01:44:26;99770.99;;;-4.95;95.43
63691;BME280;49837;57.280;27.070;2022-12-07T01:46:24;99769.15;;;-5.01;95.4
63691;BME280;49837;57.280;27.070;2022-12-07T01:47:24;99767.95;;;-4.96;95.44
63691;BME280;49837;57.280;27.070;2022-12-07T01:48:35;99759.96;;;-4.91;95.37
63691;BME280;49837;57.280;27.070;2022-12-07T01:49:34;99766.44;;;-4.92;95.26
63691;BME280;49837;57.280;27.070;2022-12-07T01:50:33;99768.36;;;-5.0;95.23
63691;BME280;49837;57.280;27.070;2022-12-07T01:51:34;99762.88;;;-4.97;95.34
63691;BME280;49837;57.280;27.070;2022-12-07T01:52:35;99761.15;;;-4.95;95.28
63691;BME280;49837;57.280;27.070;2022-12-07T01:53:36;99757.22;;;-4.99;95.22
63691;BME280;49837;57.280;27.070;2022-12-07T01:54:35;99758.27;;;-5.02;95.24
63691;BME280;49837;57.280;27.070;2022-12-07T01:55:38;99758.57;;;-5.03;95.29
63691;BME280;49837;57.280;27.070;2022-12-07T01:56:40;99755.91;;;-5.06;95.34
63691;BME280;49837;57.280;27.070;2022-12-07T01:57:47;99755.1;;;-5.03;95.4
63691;BME280;49837;57.280;27.070;2022-12-07T01:58:39;99753.96;;;-4.99;95.37
63691;BME280;49837;57.280;27.070;2022-12-07T01:59:41;99750.33;;;-5.01;95.24
63691;BME280;49837;57.280;27.070;2022-12-07T02:00:41;99749.38;;;-5.0;95.25
63691;BME280;49837;57.280;27.070;2022-12-07T02:01:41;99751.72;;;-5.02;95.39
63691;BME280;49837;57.280;27.070;2022-12-07T02:02:48;99748.84;;;-5.0;95.34
63691;BME280;49837;57.280;27.070;2022-12-07T02:03:43;99754.86;;;-4.97;95.27
63691;BME280;49837;57.280;27.070;2022-12-07T02:04:43;99752.26;;;-4.96;95.15
63691;BME280;49837;57.280;27.070;2022-12-07T02:05:43;99744.61;;;-4.96;95.06
63691;BME280;49837;57.280;27.070;2022-12-07T02:06:44;99747.08;;;-4.99;95.02
63691;BME280;49837;57.280;27.070;2022-12-07T02:07:45;99750.14;;;-5.0;95.03
63691;BME280;49837;57.280;27.070;2022-12-07T02:08:45;99745.02;;;-5.0;95.05
63691;BME280;49837;57.280;27.070;2022-12-07T02:09:44;99746.34;;;-4.99;95.02
63691;BME280;49837;57.280;27.070;2022-12-07T02:10:45;99750.73;;;-4.98;94.9
63691;BME280;49837;57.280;27.070;2022-12-07T02:11:45;99743.72;;;-4.99;94.83
63691;BME280;49837;57.280;27.070;2022-12-07T02:13:48;99743.02;;;-4.98;94.82
63691;BME280;49837;57.280;27.070;2022-12-07T02:14:48;99737.5;;;-5.0;94.83
63691;BME280;49837;57.280;27.070;2022-12-07T02:21:34;99732.98;;;-5.03;94.76
63691;BME280;49837;57.280;27.070;2022-12-07T02:30:31;99729.83;;;-4.92;94.49
63691;BME280;49837;57.280;27.070;2022-12-07T02:31:31;99723.33;;;-4.95;94.44
63691;BME280;49837;57.280;27.070;2022-12-07T02:33:37;99719.91;;;-4.92;94.77
63691;BME280;49837;57.280;27.070;2022-12-07T02:35:44;99714.89;;;-4.94;94.71
63691;BME280;49837;57.280;27.070;2022-12-07T02:41:58;99706.93;;;-5.08;94.89
63691;BME280;49837;57.280;27.070;2022-12-07T02:44:06;99709.42;;;-5.02;94.95
63691;BME280;49837;57.280;27.070;2022-12-07T02:45:07;99711.08;;;-5.03;94.98
63691;BME280;49837;57.280;27.070;2022-12-07T02:47:11;99708.8;;;-5.07;94.97
63691;BME280;49837;57.280;27.070;2022-12-07T02:48:12;99710.48;;;-5.05;94.98
63691;BME280;49837;57.280;27.070;2022-12-07T02:49:11;99707.03;;;-5.03;94.98
63691;BME280;49837;57.280;27.070;2022-12-07T02:50:11;99704.11;;;-5.06;95.01
63691;BME280;49837;57.280;27.070;2022-12-07T02:51:12;99706.71;;;-5.09;95.02
63691;BME280;49837;57.280;27.070;2022-12-07T02:52:12;99704.98;;;-5.08;95.12
63691;BME280;49837;57.280;27.070;2022-12-07T02:54:18;99700.37;;;-5.06;95.05
63691;BME280;49837;57.280;27.070;2022-12-07T02:55:19;99705.11;;;-5.09;95.04
63691;BME280;49837;57.280;27.070;2022-12-07T03:00:50;99703.84;;;-5.04;95.09
63691;BME280;49837;57.280;27.070;2022-12-07T03:03:48;99697.98;;;-5.04;95.16
63691;BME280;49837;57.280;27.070;2022-12-07T03:06:57;99703.38;;;-4.97;95.09
63691;BME280;49837;57.280;27.070;2022-12-07T03:08:02;99704.67;;;-5.0;95.09
63691;BME280;49837;57.280;27.070;2022-12-07T03:09:01;99705.03;;;-4.99;94.98
63691;BME280;49837;57.280;27.070;2022-12-07T03:15:12;99701.38;;;-5.09;94.95
63691;BME280;49837;57.280;27.070;2022-12-07T03:17:20;99703.86;;;-5.03;94.91
63691;BME280;49837;57.280;27.070;2022-12-07T03:18:22;99699.06;;;-5.0;94.93
63691;BME280;49837;57.280;27.070;2022-12-07T03:19:22;99697.41;;;-5.04;94.74
63691;BME280;49837;57.280;27.070;2022-12-07T03:20:23;99694.56;;;-5.04;94.62
63691;BME280;49837;57.280;27.070;2022-12-07T03:21:29;99694.7;;;-5.05;94.65
63691;BME280;49837;57.280;27.070;2022-12-07T03:22:23;99692.2;;;-5.01;94.65
63691;BME280;49837;57.280;27.070;2022-12-07T03:23:25;99687.52;;;-5.0;94.62
63691;BME280;49837;57.280;27.070;2022-12-07T03:24:36;99688.93;;;-5.02;94.55
63691;BME280;49837;57.280;27.070;2022-12-07T03:25:26;99686.11;;;-5.07;94.64
63691;BME280;49837;57.280;27.070;2022-12-07T03:26:35;99682.45;;;-5.07;94.75
63691;BME280;49837;57.280;27.070;2022-12-07T03:27:38;99681.15;;;-5.04;94.78
63691;BME280;49837;57.280;27.070;2022-12-07T03:29:37;99679.98;;;-5.02;94.8
63691;BME280;49837;57.280;27.070;2022-12-07T03:30:44;99681.36;;;-5.01;94.76
63691;BME280;49837;57.280;27.070;2022-12-07T03:31:47;99671.69;;;-5.04;94.69
63691;BME280;49837;57.280;27.070;2022-12-07T03:32:48;99679.81;;;-5.04;94.64
63691;BME280;49837;57.280;27.070;2022-12-07T03:33:49;99676.27;;;-5.01;94.53
63691;BME280;49837;57.280;27.070;2022-12-07T03:34:57;99674.88;;;-5.01;94.52
63691;BME280;49837;57.280;27.070;2022-12-07T03:38:02;99675.34;;;-4.99;94.51
63691;BME280;49837;57.280;27.070;2022-12-07T03:41:04;99675.05;;;-5.04;94.37
63691;BME280;49837;57.280;27.070;2022-12-07T03:42:00;99674.56;;;-5.07;94.38
63691;BME280;49837;57.280;27.070;2022-12-07T03:43:00;99675.13;;;-5.11;94.35
63691;BME280;49837;57.280;27.070;2022-12-07T03:44:00;99675.3;;;-5.1;94.52
63691;BME280;49837;57.280;27.070;2022-12-07T03:45:02;99674.64;;;-5.07;94.54
63691;BME280;49837;57.280;27.070;2022-12-07T03:47:29;99669.02;;;-5.0;94.47
63691;BME280;49837;57.280;27.070;2022-12-07T03:52:33;99664.31;;;-5.1;94.58
63691;BME280;49837;57.280;27.070;2022-12-07T03:53:30;99662.94;;;-5.1;94.55
63691;BME280;49837;57.280;27.070;2022-12-07T03:55:31;99662.83;;;-5.14;94.7
63691;BME280;49837;57.280;27.070;2022-12-07T03:56:30;99664.97;;;-5.08;94.73
63691;BME280;49837;57.280;27.070;2022-12-07T03:57:32;99656.78;;;-5.12;94.61
63691;BME280;49837;57.280;27.070;2022-12-07T03:58:31;99657.67;;;-5.09;94.68
63691;BME280;49837;57.280;27.070;2022-12-07T03:59:31;99651.3;;;-5.1;94.74
63691;BME280;49837;57.280;27.070;2022-12-07T04:00:32;99650.39;;;-5.12;94.72
63691;BME280;49837;57.280;27.070;2022-12-07T04:01:32;99650.52;;;-5.09;94.71
63691;BME280;49837;57.280;27.070;2022-12-07T04:02:33;99649.0;;;-5.02;94.62
63691;BME280;49837;57.280;27.070;2022-12-07T04:03:32;99648.05;;;-5.04;94.56
63691;BME280;49837;57.280;27.070;2022-12-07T04:04:34;99646.69;;;-5.03;94.54
63691;BME280;49837;57.280;27.070;2022-12-07T04:05:33;99640.45;;;-4.98;94.48
63691;BME280;49837;57.280;27.070;2022-12-07T04:06:34;99639.56;;;-5.02;94.34
63691;BME280;49837;57.280;27.070;2022-12-07T04:07:34;99641.0;;;-5.02;94.3
63691;BME280;49837;57.280;27.070;2022-12-07T04:08:35;99641.13;;;-5.04;94.3
63691;BME280;49837;57.280;27.070;2022-12-07T04:09:35;99637.83;;;-5.06;94.34
63691;BME280;49837;57.280;27.070;2022-12-07T04:10:35;99633.33;;;-5.07;94.45
63691;BME280;49837;57.280;27.070;2022-12-07T04:11:36;99637.26;;;-5.06;94.43
63691;BME280;49837;57.280;27.070;2022-12-07T04:12:36;99637.31;;;-5.07;94.45
63691;BME280;49837;57.280;27.070;2022-12-07T04:13:37;99635.92;;;-5.03;94.48
63691;BME280;49837;57.280;27.070;2022-12-07T04:14:37;99633.44;;;-5.06;94.44
63691;BME280;49837;57.280;27.070;2022-12-07T04:15:37;99628.19;;;-5.11;94.44
63691;BME280;49837;57.280;27.070;2022-12-07T04:16:38;99630.57;;;-5.1;94.55
63691;BME280;49837;57.280;27.070;2022-12-07T04:17:41;99629.91;;;-5.07;94.59
63691;BME280;49837;57.280;27.070;2022-12-07T04:18:41;99631.92;;;-5.05;94.64
63691;BME280;49837;57.280;27.070;2022-12-07T04:19:41;99628.09;;;-5.02;94.59
63691;BME280;49837;57.280;27.070;2022-12-07T04:20:42;99627.66;;;-5.0;94.47
63691;BME280;49837;57.280;27.070;2022-12-07T04:21:42;99629.33;;;-4.98;94.56
63691;BME280;49837;57.280;27.070;2022-12-07T04:22:42;99627.91;;;-5.03;94.46
63691;BME280;49837;57.280;27.070;2022-12-07T04:23:43;99628.64;;;-5.03;94.47
63691;BME280;49837;57.280;27.070;2022-12-07T04:24:43;99621.73;;;-5.06;94.55
63691;BME280;49837;57.280;27.070;2022-12-07T04:25:44;99624.52;;;-5.05;94.63
63691;BME280;49837;57.280;27.070;2022-12-07T04:26:44;99621.45;;;-5.01;94.68
63691;BME280;49837;57.280;27.070;2022-12-07T04:27:44;99622.97;;;-4.98;94.6
63691;BME280;49837;57.280;27.070;2022-12-07T04:28:45;99614.39;;;-5.1;94.52
63691;BME280;49837;57.280;27.070;2022-12-07T04:29:45;99618.73;;;-5.12;94.62
63691;BME280;49837;57.280;27.070;2022-12-07T04:30:46;99613.83;;;-5.13;94.78
63691;BME280;49837;57.280;27.070;2022-12-07T04:31:46;99615.8;;;-5.1;94.98
63691;BME280;49837;57.280;27.070;2022-12-07T04:32:46;99608.51;;;-5.11;94.96
63691;BME280;49837;57.280;27.070;2022-12-07T04:33:47;99609.97;;;-5.09;94.88
63691;BME280;49837;57.280;27.070;2022-12-07T04:34:48;99611.44;;;-5.09;94.83
63691;BME280;49837;57.280;27.070;2022-12-07T04:35:51;99611.81;;;-5.09;94.88
63691;BME280;49837;57.280;27.070;2022-12-07T04:36:52;99608.87;;;-5.16;94.91
63691;BME280;49837;57.280;27.070;2022-12-07T04:37:52;99606.78;;;-5.15;94.9
63691;BME280;49837;57.280;27.070;2022-12-07T04:38:54;99606.72;;;-5.17;94.9
63691;BME280;49837;57.280;27.070;2022-12-07T04:39:53;99601.77;;;-5.15;94.98
63691;BME280;49837;57.280;27.070;2022-12-07T04:40:53;99607.38;;;-5.17;95.06
63691;BME280;49837;57.280;27.070;2022-12-07T04:41:54;99601.5;;;-5.19;95.12
63691;BME280;49837;57.280;27.070;2022-12-07T04:42:54;99598.36;;;-5.21;95.25
63691;BME280;49837;57.280;27.070;2022-12-07T04:43:59;99601.61;;;-5.17;95.32
63691;BME280;49837;57.280;27.070;2022-12-07T04:44:57;99601.3;;;-5.14;95.27
63691;BME280;49837;57.280;27.070;2022-12-07T04:45:58;99599.3;;;-5.16;95.31
63691;BME280;49837;57.280;27.070;2022-12-07T04:46:58;99598.78;;;-5.17;95.36
63691;BME280;49837;57.280;27.070;2022-12-07T04:47:58;99601.06;;;-5.16;95.46
63691;BME280;49837;57.280;27.070;2022-12-07T04:48:59;99599.86;;;-5.12;95.43
63691;BME280;49837;57.280;27.070;2022-12-07T04:49:59;99603.03;;;-5.13;95.31
63691;BME280;49837;57.280;27.070;2022-12-07T04:51:00;99602.73;;;-5.14;95.32
63691;BME280;49837;57.280;27.070;2022-12-07T04:52:00;99598.55;;;-5.23;95.37
63691;BME280;49837;57.280;27.070;2022-12-07T04:53:00;99601.66;;;-5.19;95.49
63691;BME280;49837;57.280;27.070;2022-12-07T04:54:01;99600.15;;;-5.21;95.6
63691;BME280;49837;57.280;27.070;2022-12-07T04:55:01;99600.5;;;-5.23;95.78
63691;BME280;49837;57.280;27.070;2022-12-07T04:56:02;99600.91;;;-5.23;95.87
63691;BME280;49837;57.280;27.070;2022-12-07T04:57:02;99599.21;;;-5.3;95.88
63691;BME280;49837;57.280;27.070;2022-12-07T04:58:02;99596.85;;;-5.3;96.01
63691;BME280;49837;57.280;27.070;2022-12-07T04:59:03;99596.54;;;-5.22;96.08
63691;BME280;49837;57.280;27.070;2022-12-07T05:00:04;99591.91;;;-5.19;96.06
63691;BME280;49837;57.280;27.070;2022-12-07T05:01:03;99591.91;;;-5.22;96.0
63691;BME280;49837;57.280;27.070;2022-12-07T05:02:04;99598.02;;;-5.31;96.02
63691;BME280;49837;57.280;27.070;2022-12-07T05:03:04;99593.45;;;-5.25;96.02
63691;BME280;49837;57.280;27.070;2022-12-07T05:04:05;99594.43;;;-5.22;95.97
63691;BME280;49837;57.280;27.070;2022-12-07T05:05:06;99592.75;;;-5.2;95.91
63691;BME280;49837;57.280;27.070;2022-12-07T05:06:07;99596.62;;;-5.19;95.75
63691;BME280;49837;57.280;27.070;2022-12-07T05:07:09;99594.1;;;-5.22;95.73
63691;BME280;49837;57.280;27.070;2022-12-07T05:08:10;99592.59;;;-5.31;95.77
63691;BME280;49837;57.280;27.070;2022-12-07T05:09:10;99591.23;;;-5.29;95.89
63691;BME280;49837;57.280;27.070;2022-12-07T05:10:10;99588.2;;;-5.3;95.9
63691;BME280;49837;57.280;27.070;2022-12-07T05:11:11;99591.58;;;-5.22;95.84
63691;BME280;49837;57.280;27.070;2022-12-07T05:12:11;99589.93;;;-5.23;95.78
63691;BME280;49837;57.280;27.070;2022-12-07T05:13:12;99589.21;;;-5.15;95.7
63691;BME280;49837;57.280;27.070;2022-12-07T05:14:17;99592.39;;;-5.19;95.59
63691;BME280;49837;57.280;27.070;2022-12-07T05:15:15;99590.14;;;-5.2;95.55
63691;BME280;49837;57.280;27.070;2022-12-07T05:16:16;99593.27;;;-5.26;95.52
63691;BME280;49837;57.280;27.070;2022-12-07T05:17:16;99583.19;;;-5.26;95.55
63691;BME280;49837;57.280;27.070;2022-12-07T05:18:17;99585.36;;;-5.27;95.46
63691;BME280;49837;57.280;27.070;2022-12-07T05:19:17;99585.88;;;-5.26;95.47
63691;BME280;49837;57.280;27.070;2022-12-07T05:20:17;99590.8;;;-5.21;95.49
63691;BME280;49837;57.280;27.070;2022-12-07T05:21:18;99583.92;;;-5.26;95.41
63691;BME280;49837;57.280;27.070;2022-12-07T05:22:18;99588.2;;;-5.24;95.39
63691;BME280;49837;57.280;27.070;2022-12-07T05:23:19;99585.49;;;-5.25;95.37
63691;BME280;49837;57.280;27.070;2022-12-07T05:24:19;99581.53;;;-5.24;95.43
63691;BME280;49837;57.280;27.070;2022-12-07T05:25:19;99582.5;;;-5.18;95.47
63691;BME280;49837;57.280;27.070;2022-12-07T05:26:20;99581.88;;;-5.2;95.39
63691;BME280;49837;57.280;27.070;2022-12-07T05:27:20;99583.09;;;-5.2;95.38
63691;BME280;49837;57.280;27.070;2022-12-07T05:28:21;99583.3;;;-5.25;95.32
63691;BME280;49837;57.280;27.070;2022-12-07T05:29:21;99580.64;;;-5.24;95.36
63691;BME280;49837;57.280;27.070;2022-12-07T05:30:25;99581.91;;;-5.19;95.43
63691;BME280;49837;57.280;27.070;2022-12-07T05:31:23;99581.6;;;-5.17;95.44
63691;BME280;49837;57.280;27.070;2022-12-07T05:32:23;99577.95;;;-5.18;95.36
63691;BME280;49837;57.280;27.070;2022-12-07T05:33:23;99576.36;;;-5.23;95.41
63691;BME280;49837;57.280;27.070;2022-12-07T05:34:24;99580.06;;;-5.2;95.49
63691;BME280;49837;57.280;27.070;2022-12-07T05:35:24;99574.56;;;-5.19;95.46
63691;BME280;49837;57.280;27.070;2022-12-07T05:36:24;99579.84;;;-5.2;95.46
63691;BME280;49837;57.280;27.070;2022-12-07T05:37:25;99584.73;;;-5.23;95.46
63691;BME280;49837;57.280;27.070;2022-12-07T05:38:25;99580.02;;;-5.26;95.49
63691;BME280;49837;57.280;27.070;2022-12-07T05:39:26;99579.52;;;-5.2;95.55
63691;BME280;49837;57.280;27.070;2022-12-07T05:40:26;99578.3;;;-5.23;95.54
63691;BME280;49837;57.280;27.070;2022-12-07T05:41:26;99576.09;;;-5.24;95.57
63691;BME280;49837;57.280;27.070;2022-12-07T05:42:27;99581.06;;;-5.23;95.65
63691;BME280;49837;57.280;27.070;2022-12-07T05:43:27;99580.72;;;-5.21;95.58
63691;BME280;49837;57.280;27.070;2022-12-07T05:44:28;99579.55;;;-5.22;95.5
63691;BME280;49837;57.280;27.070;2022-12-07T05:45:28;99576.33;;;-5.2;95.53
63691;BME280;49837;57.280;27.070;2022-12-07T05:46:28;99577.66;;;-5.2;95.58
63691;BME280;49837;57.280;27.070;2022-12-07T05:47:30;99576.62;;;-5.22;95.61
63691;BME280;49837;57.280;27.070;2022-12-07T05:48:30;99576.55;;;-5.22;95.65
63691;BME280;49837;57.280;27.070;2022-12-07T05:49:30;99572.02;;;-5.21;95.67
63691;BME280;49837;57.280;27.070;2022-12-07T05:50:31;99572.16;;;-5.25;95.67
63691;BME280;49837;57.280;27.070;2022-12-07T05:51:31;99567.88;;;-5.24;95.72
63691;BME280;49837;57.280;27.070;2022-12-07T05:52:31;99570.55;;;-5.21;95.79
63691;BME280;49837;57.280;27.070;2022-12-07T05:53:32;99563.14;;;-5.17;95.76
63691;BME280;49837;57.280;27.070;2022-12-07T05:54:32;99563.84;;;-5.12;95.71
63691;BME280;49837;57.280;27.070;2022-12-07T05:55:33;99563.6;;;-5.15;95.55
63691;BME280;49837;57.280;27.070;2022-12-07T05:56:33;99563.79;;;-5.14;95.61
63691;BME280;49837;57.280;27.070;2022-12-07T05:57:33;99559.92;;;-5.16;95.52
63691;BME280;49837;57.280;27.070;2022-12-07T05:58:34;99561.88;;;-5.16;95.51
63691;BME280;49837;57.280;27.070;2022-12-07T05:59:34;99558.88;;;-5.2;95.51
63691;BME280;49837;57.280;27.070;2022-12-07T06:00:35;99560.36;;;-5.22;95.54
63691;BME280;49837;57.280;27.070;2022-12-07T06:01:35;99559.8;;;-5.28;95.57
63691;BME280;49837;57.280;27.070;2022-12-07T06:02:35;99561.05;;;-5.27;95.67
63691;BME280;49837;57.280;27.070;2022-12-07T06:03:36;99557.5;;;-5.23;95.74
63691;BME280;49837;57.280;27.070;2022-12-07T06:04:40;99556.14;;;-5.28;95.8
63691;BME280;49837;57.280;27.070;2022-12-07T06:05:38;99557.33;;;-5.23;95.91
63691;BME280;49837;57.280;27.070;2022-12-07T06:06:39;99562.91;;;-5.24;95.9
63691;BME280;49837;57.280;27.070;2022-12-07T06:07:38;99556.0;;;-5.24;95.99
63691;BME280;49837;57.280;27.070;2022-12-07T06:08:39;99557.97;;;-5.19;96.03
63691;BME280;49837;57.280;27.070;2022-12-07T06:09:39;99560.43;;;-5.15;95.96
63691;BME280;49837;57.280;27.070;2022-12-07T06:10:40;99560.85;;;-5.11;95.83
63691;BME280;49837;57.280;27.070;2022-12-07T06:11:40;99558.97;;;-5.16;95.68
63691;BME280;49837;57.280;27.070;2022-12-07T06:12:40;99561.45;;;-5.21;95.65
63691;BME280;49837;57.280;27.070;2022-12-07T06:13:41;99559.17;;;-5.21;95.67